createdAt,value
2018-04-17T00:00:34.456Z,101090.98
2018-04-17T00:02:12.351Z,101108.28
2018-04-17T00:03:50.101Z,101018.98
2018-04-17T00:05:28.505Z,100951.46
2018-04-17T00:07:06.974Z,100900.31
2018-04-17T00:08:44.672Z,100841.77
2018-04-17T00:10:22.599Z,100777.42
2018-04-17T00:12:01.007Z,100706.03
2018-04-17T00:13:38.383Z,100630.67
2018-04-17T00:15:16.771Z,100647.92
2018-04-17T00:16:54.311Z,100702.49
2018-04-17T00:18:31.765Z,100727.30
2018-04-17T00:20:09.033Z,100679.43
2018-04-17T00:21:47.332Z,100616.05
2018-04-17T00:23:25.648Z,100482.61
2018-04-17T00:25:03.217Z,100387.06
2018-04-17T00:26:40.478Z,100351.16
2018-04-17T00:28:17.551Z,100333.05
2018-04-17T00:29:54.673Z,100276.84
2018-04-17T00:31:32.470Z,100157.02
2018-04-17T00:33:10.471Z,99974.12
2018-04-17T00:34:48.300Z,99860.69
2018-04-17T00:36:26.998Z,99774.24
2018-04-17T00:38:04.670Z,99731.39
2018-04-17T00:39:42.054Z,99787.47
2018-04-17T00:41:19.968Z,99855.39
2018-04-17T00:42:57.235Z,99970.58
2018-04-17T00:44:34.821Z,100162.73
2018-04-17T00:46:12.365Z,100294.52
2018-04-17T00:47:48.898Z,100339.14
2018-04-17T00:49:26.952Z,100309.06
2018-04-17T00:51:04.519Z,100304.69
2018-04-17T00:52:41.609Z,100269.70
2018-04-17T00:54:20.020Z,100204.73
2018-04-17T00:55:56.558Z,100177.31
2018-04-17T00:57:33.956Z,100193.73
2018-04-17T00:59:11.411Z,100224.73
2018-04-17T01:00:48.700Z,100230.86
2018-04-17T01:02:26.017Z,100259.16
2018-04-17T01:04:03.069Z,100284.80
2018-04-17T01:05:40.111Z,100318.44
2018-04-17T01:07:17.313Z,100364.00
2018-04-17T01:08:54.491Z,100343.19
2018-04-17T01:10:32.153Z,100317.52
2018-04-17T01:12:08.865Z,100324.14
2018-04-17T01:13:46.775Z,100284.81
2018-04-17T01:15:25.993Z,100302.48
2018-04-17T01:17:05.803Z,100311.36
2018-04-17T01:18:44.098Z,100327.28
2018-04-17T01:20:25.502Z,100292.27
2018-04-17T01:22:03.769Z,100310.45
2018-04-17T01:23:41.750Z,100295.42
2018-04-17T01:25:18.963Z,100278.16
2018-04-17T01:26:56.494Z,100253.84
2018-04-17T01:28:33.298Z,100236.63
2018-04-17T01:30:10.794Z,100229.96
2018-04-17T01:31:48.859Z,100257.86
2018-04-17T01:33:26.840Z,100286.20
2018-04-17T01:35:05.099Z,100294.60
2018-04-17T01:36:42.431Z,100265.36
2018-04-17T01:38:22.065Z,100224.23
2018-04-17T01:39:59.099Z,100187.11
2018-04-17T01:41:37.243Z,100144.61
2018-04-17T01:43:14.334Z,100089.41
2018-04-17T01:44:51.495Z,100039.05
2018-04-17T01:46:28.897Z,99996.22
2018-04-17T01:48:05.718Z,99998.89
2018-04-17T01:49:43.418Z,100002.87
2018-04-17T01:51:21.017Z,100020.04
2018-04-17T01:52:58.187Z,100008.64
2018-04-17T01:54:39.339Z,100019.27
2018-04-17T01:56:16.265Z,100041.27
2018-04-17T01:57:53.414Z,100075.72
2018-04-17T01:59:30.622Z,100113.30
2018-04-17T02:01:09.338Z,100083.70
2018-04-17T02:02:48.623Z,100064.30
2018-04-17T02:04:27.082Z,100004.19
2018-04-17T02:06:05.445Z,99972.02
2018-04-17T02:07:43.557Z,99996.73
2018-04-17T02:09:21.620Z,100047.48
2018-04-17T02:10:59.991Z,100085.48
2018-04-17T02:12:36.908Z,100138.50
2018-04-17T02:14:14.550Z,100236.67
2018-04-17T02:15:53.370Z,100335.31
2018-04-17T02:17:31.223Z,100392.42
2018-04-17T02:19:08.979Z,100394.14
2018-04-17T02:20:48.001Z,100318.89
2018-04-17T02:22:26.629Z,100241.05
2018-04-17T02:24:04.505Z,100077.50
2018-04-17T02:25:41.667Z,99897.81
2018-04-17T02:27:21.925Z,99750.09
2018-04-17T02:28:58.661Z,99608.15
2018-04-17T02:30:36.535Z,99552.22
2018-04-17T02:32:14.511Z,99592.30
2018-04-17T02:33:53.468Z,99642.98
2018-04-17T02:35:31.938Z,99642.50
2018-04-17T02:37:08.617Z,99584.42
2018-04-17T02:38:47.394Z,99388.00
2018-04-17T02:40:26.494Z,99191.41
2018-04-17T02:42:04.388Z,99105.75
2018-04-17T02:43:42.429Z,99056.57
2018-04-17T02:45:20.582Z,98942.47
2018-04-17T02:46:59.298Z,98827.99
2018-04-17T02:48:36.292Z,98742.55
2018-04-17T02:50:13.378Z,98689.05
2018-04-17T02:51:51.067Z,98717.17
2018-04-17T02:53:29.713Z,98709.25
2018-04-17T02:55:08.502Z,98719.31
2018-04-17T02:56:46.245Z,98765.75
2018-04-17T02:58:23.529Z,98866.08
2018-04-17T03:00:01.607Z,99063.58
2018-04-17T03:01:40.895Z,99210.73
2018-04-17T03:03:18.933Z,99264.80
2018-04-17T03:04:57.578Z,99330.82
2018-04-17T03:06:35.119Z,99441.64
2018-04-17T03:08:12.946Z,99511.63
2018-04-17T03:09:50.138Z,99514.69
2018-04-17T03:11:27.835Z,99587.42
2018-04-17T03:13:06.516Z,99592.59
2018-04-17T03:14:44.023Z,99594.86
2018-04-17T03:16:22.737Z,99472.91
2018-04-17T03:17:59.187Z,99396.78
2018-04-17T03:19:37.328Z,99311.09
2018-04-17T03:21:15.788Z,99234.50
2018-04-17T03:22:53.357Z,99181.84
2018-04-17T03:24:31.547Z,99124.22
2018-04-17T03:26:08.934Z,99126.88
2018-04-17T03:27:46.475Z,99028.98
2018-04-17T03:29:24.315Z,98894.22
2018-04-17T03:31:01.860Z,98843.81
2018-04-17T03:32:40.367Z,98851.67
2018-04-17T03:34:17.247Z,98796.54
2018-04-17T03:35:54.785Z,98723.76
2018-04-17T03:37:31.918Z,98746.56
2018-04-17T03:39:09.320Z,98814.03
2018-04-17T03:40:46.533Z,98806.98
2018-04-17T03:42:23.032Z,98820.16
2018-04-17T03:44:02.011Z,98867.47
2018-04-17T03:45:39.715Z,98932.44
2018-04-17T03:47:16.658Z,99048.30
2018-04-17T03:50:35.545Z,99156.73
2018-04-17T03:52:13.477Z,99109.33
2018-04-17T03:53:51.628Z,99108.44
2018-04-17T03:55:28.698Z,99091.75
2018-04-17T03:57:05.881Z,99011.38
2018-04-17T03:58:43.942Z,98899.55
2018-04-17T04:00:21.850Z,98773.70
2018-04-17T04:01:59.214Z,98665.86
2018-04-17T04:03:36.755Z,98646.16
2018-04-17T04:05:14.759Z,98632.19
2018-04-17T04:06:52.291Z,98582.69
2018-04-17T04:08:29.824Z,98573.57
2018-04-17T04:10:07.576Z,98587.95
2018-04-17T04:11:45.629Z,98643.19
2018-04-17T04:13:23.709Z,98742.26
2018-04-17T04:15:00.880Z,98733.44
2018-04-17T04:17:51.564Z,98718.03
2018-04-17T04:23:55.819Z,98610.30
2018-04-17T04:25:39.994Z,98447.89
2018-04-17T04:27:18.366Z,98440.08
2018-04-17T04:28:56.797Z,98458.80
2018-04-17T04:30:34.397Z,98501.76
2018-04-17T04:32:11.357Z,98516.30
2018-04-17T04:33:48.797Z,98528.95
2018-04-17T04:35:26.598Z,98486.90
2018-04-17T04:37:04.539Z,98491.28
2018-04-17T04:38:42.136Z,98461.45
2018-04-17T04:40:19.208Z,98492.23
2018-04-17T04:41:56.159Z,98539.83
2018-04-17T04:43:34.399Z,98569.16
2018-04-17T04:45:11.513Z,98556.11
2018-04-17T04:46:48.723Z,98527.62
2018-04-17T04:48:26.516Z,98514.89
2018-04-17T04:50:04.477Z,98502.19
2018-04-17T04:51:42.273Z,98511.89
2018-04-17T04:53:19.340Z,98511.00
2018-04-17T04:54:57.775Z,98511.37
2018-04-17T04:56:34.918Z,98575.30
2018-04-17T04:58:12.023Z,98590.63
2018-04-17T04:59:50.192Z,98651.50
2018-04-17T05:01:28.456Z,98662.42
2018-04-17T05:03:06.531Z,98682.61
2018-04-17T05:04:44.113Z,98709.77
2018-04-17T05:06:22.453Z,98729.53
2018-04-17T05:07:59.852Z,98760.64
2018-04-17T05:09:37.784Z,98782.11
2018-04-17T05:11:14.825Z,98765.89
2018-04-17T05:12:53.137Z,98783.88
2018-04-17T05:14:30.839Z,98791.83
2018-04-17T05:16:08.671Z,98778.61
2018-04-17T05:17:46.241Z,98822.93
2018-04-17T05:19:23.419Z,98861.45
2018-04-17T05:21:00.955Z,98898.33
2018-04-17T05:22:39.719Z,98924.59
2018-04-17T05:24:17.214Z,98940.39
2018-04-17T05:25:54.783Z,98950.95
2018-04-17T05:27:33.344Z,98953.12
2018-04-17T05:29:11.111Z,98966.78
2018-04-17T05:30:48.588Z,98965.88
2018-04-17T05:32:26.259Z,99014.64
2018-04-17T05:34:03.570Z,99076.11
2018-04-17T05:35:42.906Z,99149.85
2018-04-17T05:37:19.906Z,99223.30
2018-04-17T05:38:56.249Z,99314.41
2018-04-17T05:40:33.696Z,99390.77
2018-04-17T05:42:11.965Z,99409.77
2018-04-17T05:43:49.204Z,99398.33
2018-04-17T05:45:29.676Z,99395.69
2018-04-17T05:47:06.832Z,99378.13
2018-04-17T05:48:45.453Z,99349.97
2018-04-17T05:50:23.342Z,99360.58
2018-04-17T05:52:01.321Z,99489.01
2018-04-17T05:53:38.353Z,99529.08
2018-04-17T05:55:15.452Z,99672.27
2018-04-17T05:56:52.221Z,99691.70
2018-04-17T05:58:29.672Z,99744.17
2018-04-17T06:00:06.222Z,99839.95
2018-04-17T06:01:43.454Z,99901.73
2018-04-17T06:03:20.541Z,100042.08
2018-04-17T06:04:57.840Z,100052.63
2018-04-17T06:06:37.052Z,100043.84
2018-04-17T06:08:14.484Z,100091.11
2018-04-17T06:09:52.041Z,100094.24
2018-04-17T06:11:29.017Z,100075.69
2018-04-17T06:13:07.702Z,100079.67
2018-04-17T06:14:45.367Z,100027.56
2018-04-17T06:16:23.348Z,100025.81
2018-04-17T06:18:00.833Z,100002.84
2018-04-17T06:19:39.043Z,100024.04
2018-04-17T06:21:17.760Z,100048.33
2018-04-17T06:24:34.800Z,100086.78
2018-04-17T06:26:12.614Z,100164.12
2018-04-17T06:27:49.748Z,100121.67
2018-04-17T06:29:27.325Z,100055.43
2018-04-17T06:31:05.477Z,100073.95
2018-04-17T06:32:43.064Z,100071.78
2018-04-17T06:34:20.601Z,100085.48
2018-04-17T06:35:58.930Z,100191.08
2018-04-17T06:37:36.020Z,100112.91
2018-04-17T06:39:13.639Z,99962.73
2018-04-17T06:40:50.628Z,99907.59
2018-04-17T06:42:28.920Z,99918.13
2018-04-17T06:44:05.972Z,99841.84
2018-04-17T06:45:44.647Z,99865.22
2018-04-17T06:47:21.827Z,99921.73
2018-04-17T06:48:59.615Z,100048.45
2018-04-17T06:50:37.289Z,100128.42
2018-04-17T06:52:14.853Z,100189.86
2018-04-17T06:53:52.689Z,100241.98
2018-04-17T06:55:31.046Z,100223.46
2018-04-17T06:57:08.722Z,100140.79
2018-04-17T06:58:47.106Z,100097.52
2018-04-17T07:00:25.835Z,100158.47
2018-04-17T07:02:03.279Z,100204.02
2018-04-17T07:03:41.302Z,100292.97
2018-04-17T07:05:18.878Z,100439.42
2018-04-17T07:06:56.701Z,100437.17
2018-04-17T07:08:33.562Z,100416.38
2018-04-17T07:10:10.654Z,100336.77
2018-04-17T07:11:48.591Z,100321.77
2018-04-17T07:13:25.882Z,100381.92
2018-04-17T07:15:03.664Z,100365.92
2018-04-17T07:16:40.274Z,100413.75
2018-04-17T07:18:18.308Z,100469.11
2018-04-17T07:19:56.380Z,100636.58
2018-04-17T07:21:33.476Z,100843.35
2018-04-17T07:23:11.305Z,100805.59
2018-04-17T07:24:48.897Z,100683.22
2018-04-17T07:26:26.585Z,100628.23
2018-04-17T07:28:03.021Z,100610.95
2018-04-17T07:29:40.588Z,100637.95
2018-04-17T07:31:18.628Z,100745.77
2018-04-17T07:32:55.722Z,100955.68
2018-04-17T07:34:33.335Z,100996.12
2018-04-17T07:36:10.591Z,100814.06
2018-04-17T07:37:49.451Z,100749.76
2018-04-17T07:39:27.055Z,100813.64
2018-04-17T07:41:04.135Z,100974.81
2018-04-17T07:42:41.728Z,101125.06
2018-04-17T07:44:19.727Z,101202.84
2018-04-17T07:45:58.752Z,101429.34
2018-04-17T07:47:38.040Z,101686.10
2018-04-17T07:49:14.957Z,101978.00
2018-04-17T07:50:53.036Z,102097.31
2018-04-17T07:52:30.802Z,102142.02
2018-04-17T07:54:09.135Z,102023.59
2018-04-17T07:55:46.237Z,102075.47
2018-04-17T07:57:24.821Z,102267.39
2018-04-17T07:59:02.469Z,102359.55
2018-04-17T08:00:42.827Z,102461.64
2018-04-17T08:02:19.961Z,102467.49
2018-04-17T08:04:03.772Z,102372.54
2018-04-17T08:05:41.734Z,102405.68
2018-04-17T08:07:18.788Z,102430.30
2018-04-17T08:08:57.109Z,102422.69
2018-04-17T08:10:35.626Z,102386.91
2018-04-17T08:12:13.279Z,102547.67
2018-04-17T08:13:50.559Z,102578.61
2018-04-17T08:15:29.969Z,102358.67
2018-04-17T08:17:07.405Z,102315.30
2018-04-17T08:18:45.220Z,102439.30
2018-04-17T08:20:22.824Z,102360.49
2018-04-17T08:22:00.655Z,102424.09
2018-04-17T08:23:38.679Z,102579.58
2018-04-17T08:25:16.031Z,102670.59
2018-04-17T08:26:53.300Z,102671.06
2018-04-17T08:28:30.957Z,102493.52
2018-04-17T08:30:08.324Z,102376.22
2018-04-17T08:31:46.424Z,102448.75
2018-04-17T08:33:24.340Z,102403.06
2018-04-17T08:35:01.986Z,102113.09
2018-04-17T08:36:39.543Z,102169.89
2018-04-17T08:38:16.717Z,102184.19
2018-04-17T08:39:54.584Z,102388.29
2018-04-17T08:41:32.077Z,102595.27
2018-04-17T08:43:10.687Z,102330.93
2018-04-17T08:44:49.588Z,102220.89
2018-04-17T08:46:26.529Z,102181.98
2018-04-17T08:48:04.365Z,102140.81
2018-04-17T08:49:42.431Z,102091.66
2018-04-17T08:51:19.568Z,102066.16
2018-04-17T08:52:57.018Z,102091.66
2018-04-17T08:54:34.202Z,102297.44
2018-04-17T08:56:11.712Z,102517.72
2018-04-17T08:57:48.388Z,102650.89
2018-04-17T08:59:25.822Z,102767.94
2018-04-17T09:01:03.513Z,102695.70
2018-04-17T09:02:41.381Z,102532.98
2018-04-17T09:04:19.086Z,102402.17
2018-04-17T09:05:56.210Z,102434.89
2018-04-17T09:07:34.242Z,102588.52
2018-04-17T09:09:12.059Z,102791.71
2018-04-17T09:10:50.277Z,102634.23
2018-04-17T09:12:28.596Z,102249.98
2018-04-17T09:14:06.399Z,102173.47
2018-04-17T09:15:44.434Z,102380.70
2018-04-17T09:17:22.096Z,102627.11
2018-04-17T09:19:00.157Z,102785.41
2018-04-17T09:20:37.709Z,102881.02
2018-04-17T09:22:14.925Z,102938.06
2018-04-17T09:23:53.425Z,102931.30
2018-04-17T09:27:02.848Z,103062.52
2018-04-17T09:28:40.126Z,103051.31
2018-04-17T09:30:19.681Z,102707.36
2018-04-17T09:31:57.286Z,102701.99
2018-04-17T09:33:34.799Z,102735.63
2018-04-17T09:35:11.911Z,102683.13
2018-04-17T09:36:51.691Z,102704.20
2018-04-17T09:38:28.737Z,102794.41
2018-04-17T09:40:06.861Z,102990.19
2018-04-17T09:41:44.539Z,103128.17
2018-04-17T09:43:22.819Z,103164.57
2018-04-17T09:45:00.479Z,103214.47
2018-04-17T09:46:38.805Z,103125.92
2018-04-17T09:48:15.629Z,102809.66
2018-04-17T09:49:53.164Z,102806.95
2018-04-17T09:51:30.782Z,102934.91
2018-04-17T09:53:08.714Z,102894.50
2018-04-17T09:54:45.310Z,102978.53
2018-04-17T09:56:22.135Z,102950.23
2018-04-17T09:58:00.074Z,102903.00
2018-04-17T09:59:37.699Z,103109.70
2018-04-17T10:01:19.738Z,103264.45
2018-04-17T10:02:56.185Z,103358.50
2018-04-17T10:04:33.531Z,103352.68
2018-04-17T10:06:10.616Z,103313.05
2018-04-17T10:07:48.297Z,103294.62
2018-04-17T10:09:25.943Z,103284.23
2018-04-17T10:11:03.022Z,103304.03
2018-04-17T10:12:40.688Z,103178.02
2018-04-17T10:14:17.880Z,103240.57
2018-04-17T10:15:54.993Z,103077.78
2018-04-17T10:17:32.458Z,102652.17
2018-04-17T10:19:10.011Z,102471.09
2018-04-17T10:20:47.657Z,102568.31
2018-04-17T10:22:24.928Z,102813.22
2018-04-17T10:24:01.704Z,103004.98
2018-04-17T10:25:40.372Z,103025.19
2018-04-17T10:27:17.957Z,102947.02
2018-04-17T10:28:57.255Z,102770.55
2018-04-17T10:30:34.513Z,102943.02
2018-04-17T10:32:12.403Z,103118.64
2018-04-17T10:33:49.886Z,103080.47
2018-04-17T10:35:26.775Z,103290.98
2018-04-17T10:37:04.779Z,103414.77
2018-04-17T10:38:42.154Z,103420.63
2018-04-17T10:40:20.418Z,103442.25
2018-04-17T10:41:58.081Z,103325.62
2018-04-17T10:43:35.946Z,103140.67
2018-04-17T10:45:15.162Z,103106.08
2018-04-17T10:46:52.113Z,103280.16
2018-04-17T10:48:29.185Z,103392.66
2018-04-17T10:50:07.311Z,103453.48
2018-04-17T10:51:44.494Z,103541.79
2018-04-17T10:53:22.089Z,103499.41
2018-04-17T10:54:59.454Z,103507.09
2018-04-17T10:56:36.935Z,103593.61
2018-04-17T10:58:14.796Z,103539.03
2018-04-17T10:59:52.294Z,103535.02
2018-04-17T11:01:31.135Z,103163.13
2018-04-17T11:03:08.788Z,102823.91
2018-04-17T11:04:46.377Z,102831.98
2018-04-17T11:06:23.334Z,102879.59
2018-04-17T11:08:01.997Z,103020.19
2018-04-17T11:09:39.814Z,103209.88
2018-04-17T11:11:17.373Z,103246.81
2018-04-17T11:12:55.001Z,103384.98
2018-04-17T11:14:33.364Z,103305.74
2018-04-17T11:16:10.987Z,103380.91
2018-04-17T11:17:48.811Z,103460.63
2018-04-17T11:19:26.431Z,103384.95
2018-04-17T11:21:05.526Z,103150.03
2018-04-17T11:22:43.399Z,102915.96
2018-04-17T11:24:20.650Z,103038.12
2018-04-17T11:25:57.395Z,103182.42
2018-04-17T11:27:34.465Z,103181.07
2018-04-17T11:29:12.537Z,103097.43
2018-04-17T11:30:50.257Z,103144.17
2018-04-17T11:32:27.956Z,103261.58
2018-04-17T11:34:06.908Z,103248.09
2018-04-17T11:35:44.730Z,103237.73
2018-04-17T11:37:21.954Z,103406.55
2018-04-17T11:39:00.356Z,103255.27
2018-04-17T11:40:37.792Z,103074.47
2018-04-17T11:42:15.895Z,102909.13
2018-04-17T11:43:53.399Z,102812.13
2018-04-17T11:45:30.730Z,102894.78
2018-04-17T11:47:08.999Z,103166.62
2018-04-17T11:48:47.160Z,103349.33
2018-04-17T11:50:25.114Z,103198.97
2018-04-17T11:52:02.507Z,102977.81
2018-04-17T11:53:40.427Z,102935.61
2018-04-17T11:55:18.381Z,102655.06
2018-04-17T11:56:55.119Z,102621.03
2018-04-17T11:58:32.877Z,102639.38
2018-04-17T12:00:12.356Z,102570.32
2018-04-17T12:01:53.963Z,102639.38
2018-04-17T12:03:31.226Z,102666.69
2018-04-17T12:05:10.052Z,102743.38
2018-04-17T12:06:47.827Z,102794.98
2018-04-17T12:08:25.563Z,102767.17
2018-04-17T12:10:03.222Z,102934.63
2018-04-17T12:11:40.347Z,103112.13
2018-04-17T12:13:18.100Z,103316.86
2018-04-17T12:14:56.096Z,103347.91
2018-04-17T12:16:32.782Z,103486.64
2018-04-17T12:18:10.325Z,103602.02
2018-04-17T12:19:47.544Z,103689.51
2018-04-17T12:21:25.978Z,103719.70
2018-04-17T12:23:04.196Z,103743.59
2018-04-17T12:24:40.737Z,103675.49
2018-04-17T12:26:18.392Z,103662.84
2018-04-17T12:27:56.421Z,103601.11
2018-04-17T12:29:33.980Z,103574.95
2018-04-17T12:31:12.004Z,103517.72
2018-04-17T12:32:49.483Z,103519.52
2018-04-17T12:34:27.898Z,103507.38
2018-04-17T12:36:05.918Z,103657.02
2018-04-17T12:37:43.863Z,103764.78
2018-04-17T12:39:22.291Z,103677.24
2018-04-17T12:41:00.726Z,103475.33
2018-04-17T12:42:38.474Z,103491.99
2018-04-17T12:44:15.797Z,103578.05
2018-04-17T12:45:59.232Z,103729.58
2018-04-17T12:47:37.196Z,103792.75
2018-04-17T12:49:15.008Z,103835.65
2018-04-17T12:50:52.262Z,103729.10
2018-04-17T12:52:29.920Z,103679.95
2018-04-17T12:54:07.468Z,103665.55
2018-04-17T12:55:44.467Z,103651.53
2018-04-17T12:57:22.350Z,103562.75
2018-04-17T12:59:01.104Z,103643.45
2018-04-17T13:00:39.136Z,103836.55
2018-04-17T13:02:16.758Z,103981.03
2018-04-17T13:03:55.255Z,103954.38
2018-04-17T13:05:33.410Z,104074.11
2018-04-17T13:07:10.583Z,104126.12
2018-04-17T13:08:48.640Z,104125.66
2018-04-17T13:10:26.474Z,104127.47
2018-04-17T13:12:04.842Z,104000.89
2018-04-17T13:13:42.752Z,103883.89
2018-04-17T13:15:21.515Z,103877.59
2018-04-17T13:17:01.012Z,103830.66
2018-04-17T13:18:38.905Z,103820.26
2018-04-17T13:20:18.281Z,103823.41
2018-04-17T13:21:55.977Z,103921.83
2018-04-17T13:23:33.142Z,104033.84
2018-04-17T13:25:11.408Z,104087.20
2018-04-17T13:26:48.588Z,103999.97
2018-04-17T13:28:25.578Z,103960.66
2018-04-17T13:30:03.264Z,103608.63
2018-04-17T13:31:40.505Z,103563.56
2018-04-17T13:33:18.178Z,103561.75
2018-04-17T13:34:55.924Z,103504.94
2018-04-17T13:36:34.488Z,103466.23
2018-04-17T13:38:13.623Z,103618.52
2018-04-17T13:39:51.111Z,103616.26
2018-04-17T13:41:30.029Z,103619.41
2018-04-17T13:43:07.907Z,103395.89
2018-04-17T13:44:46.668Z,103286.92
2018-04-17T13:46:23.459Z,103195.61
2018-04-17T13:48:00.745Z,103143.86
2018-04-17T13:49:39.369Z,103278.80
2018-04-17T13:51:17.598Z,103281.49
2018-04-17T13:52:55.511Z,103250.45
2018-04-17T13:54:34.628Z,103305.34
2018-04-17T13:56:13.523Z,103390.02
2018-04-17T13:57:52.267Z,103578.34
2018-04-17T13:59:30.165Z,103739.80
2018-04-17T14:01:08.093Z,103858.06
2018-04-17T14:02:45.966Z,103750.64
2018-04-17T14:04:24.911Z,103832.78
2018-04-17T14:06:02.786Z,103962.84
2018-04-17T14:07:41.418Z,104039.22
2018-04-17T14:09:20.568Z,103961.48
2018-04-17T14:10:59.642Z,103738.91
2018-04-17T14:12:36.822Z,103463.88
2018-04-17T14:14:14.028Z,103309.33
2018-04-17T14:15:52.559Z,103294.48
2018-04-17T14:17:30.978Z,103276.96
2018-04-17T14:19:10.325Z,103302.15
2018-04-17T14:20:49.159Z,103418.76
2018-04-17T14:22:27.622Z,103635.54
2018-04-17T14:24:05.500Z,103771.35
2018-04-17T14:25:43.440Z,103839.05
2018-04-17T14:27:25.122Z,103956.89
2018-04-17T14:29:03.795Z,103879.66
2018-04-17T14:30:42.700Z,103651.80
2018-04-17T14:32:20.526Z,103587.28
2018-04-17T14:33:59.041Z,103365.59
2018-04-17T14:35:36.807Z,103243.58
2018-04-17T14:37:15.991Z,103154.06
2018-04-17T14:38:54.108Z,103156.31
2018-04-17T14:40:32.546Z,103230.53
2018-04-17T14:42:11.472Z,103271.00
2018-04-17T14:43:49.405Z,103319.62
2018-04-17T14:45:29.885Z,103288.55
2018-04-17T14:47:09.049Z,103384.02
2018-04-17T14:48:46.781Z,103402.03
2018-04-17T14:50:25.157Z,103404.76
2018-04-17T14:52:03.833Z,103516.45
2018-04-17T14:53:41.970Z,103733.81
2018-04-17T14:55:39.896Z,103880.53
2018-04-17T14:57:20.514Z,103894.95
2018-04-17T14:58:59.017Z,103844.83
2018-04-17T15:00:37.240Z,103748.72
2018-04-17T15:02:15.792Z,103797.45
2018-04-17T15:03:53.645Z,103860.63
2018-04-17T15:05:31.906Z,103969.93
2018-04-17T15:07:11.279Z,103875.09
2018-04-17T15:08:48.581Z,103654.38
2018-04-17T15:10:26.533Z,103455.59
2018-04-17T15:12:03.195Z,103583.58
2018-04-17T15:13:40.370Z,103693.66
2018-04-17T15:15:19.904Z,103732.44
2018-04-17T15:16:57.651Z,103917.53
2018-04-17T15:18:37.713Z,104056.23
2018-04-17T15:20:17.846Z,104156.59
2018-04-17T15:22:01.058Z,104124.48
2018-04-17T15:23:39.561Z,104151.66
2018-04-17T15:25:17.853Z,104199.59
2018-04-17T15:26:57.096Z,104264.73
2018-04-17T15:28:35.702Z,104210.88
2018-04-17T15:30:16.472Z,104317.25
2018-04-17T15:31:54.347Z,104390.14
2018-04-17T15:33:31.893Z,104281.03
2018-04-17T15:35:12.132Z,104004.25
2018-04-17T15:36:51.686Z,103864.17
2018-04-17T15:38:29.852Z,103802.34
2018-04-17T15:40:07.304Z,103892.62
2018-04-17T15:41:46.867Z,104074.73
2018-04-17T15:43:27.084Z,104249.30
2018-04-17T15:45:07.569Z,104389.63
2018-04-17T15:46:47.260Z,104463.03
2018-04-17T15:48:26.021Z,104346.62
2018-04-17T15:50:05.618Z,103973.00
2018-04-17T15:51:49.422Z,103734.16
2018-04-17T15:53:27.925Z,103572.66
2018-04-17T15:55:20.106Z,103562.78
2018-04-17T15:57:02.565Z,103562.75
2018-04-17T15:58:41.885Z,103623.59
2018-04-17T16:00:25.089Z,103666.03
2018-04-17T16:02:14.828Z,103735.50
2018-04-17T16:03:53.177Z,103929.14
2018-04-17T16:05:37.252Z,104112.22
2018-04-17T16:07:20.767Z,104223.45
2018-04-17T16:09:00.851Z,104269.17
2018-04-17T16:10:41.372Z,104232.51
2018-04-17T16:12:21.860Z,104157.41
2018-04-17T16:14:00.279Z,104338.91
2018-04-17T16:15:37.869Z,104427.63
2018-04-17T16:17:15.439Z,104472.02
2018-04-17T16:19:02.848Z,104543.62
2018-04-17T16:20:43.200Z,104422.64
2018-04-17T16:22:23.542Z,104352.02
2018-04-17T16:24:07.409Z,104460.70
2018-04-17T16:25:50.292Z,104585.80
2018-04-17T16:27:29.448Z,104695.96
2018-04-17T16:29:10.737Z,104751.31
2018-04-17T16:31:02.302Z,104720.95
2018-04-17T16:32:42.134Z,104589.84
2018-04-17T16:34:22.714Z,104662.42
2018-04-17T16:36:01.430Z,104586.66
2018-04-17T16:37:39.051Z,104538.63
2018-04-17T16:39:25.333Z,104549.97
2018-04-17T16:41:05.443Z,104555.37
2018-04-17T16:42:43.608Z,104553.14
2018-04-17T16:44:28.282Z,104544.98
2018-04-17T16:46:06.919Z,104694.59
2018-04-17T16:47:45.684Z,104683.23
2018-04-17T16:49:23.212Z,104559.91
2018-04-17T16:51:04.681Z,104491.92
2018-04-17T16:52:43.775Z,104570.80
2018-04-17T16:54:21.088Z,104476.03
2018-04-17T16:55:59.596Z,104228.40
2018-04-17T16:57:37.698Z,104147.83
2018-04-17T16:59:15.573Z,104312.98
2018-04-17T17:00:54.029Z,104477.84
2018-04-17T17:02:32.095Z,104394.94
2018-04-17T17:04:10.613Z,104384.51
2018-04-17T17:05:48.616Z,104433.00
2018-04-17T17:07:27.183Z,104491.89
2018-04-17T17:09:08.635Z,104423.92
2018-04-17T17:10:48.107Z,104453.37
2018-04-17T17:12:27.852Z,104401.70
2018-04-17T17:14:08.582Z,104478.73
2018-04-17T17:15:49.249Z,104585.69
2018-04-17T17:17:30.518Z,104675.50
2018-04-17T17:19:10.306Z,104592.05
2018-04-17T17:20:48.976Z,104523.12
2018-04-17T17:22:29.016Z,104405.33
2018-04-17T17:24:10.466Z,104216.13
2018-04-17T17:25:57.289Z,103987.25
2018-04-17T17:27:38.202Z,103911.37
2018-04-17T17:29:23.207Z,103915.89
2018-04-17T17:31:05.506Z,104057.34
2018-04-17T17:35:22.409Z,104359.58
2018-04-17T17:37:01.385Z,104218.78
2018-04-17T17:38:41.775Z,104013.90
2018-04-17T17:40:22.174Z,103994.95
2018-04-17T17:42:02.156Z,104085.77
2018-04-17T17:43:46.033Z,104271.27
2018-04-17T17:45:27.134Z,104408.44
2018-04-17T17:47:08.346Z,104512.66
2018-04-17T17:48:47.387Z,104496.31
2018-04-17T17:50:27.636Z,104550.71
2018-04-17T17:52:08.169Z,104595.16
2018-04-17T17:53:53.329Z,104549.34
2018-04-17T17:55:34.794Z,104410.23
2018-04-17T17:57:14.343Z,104335.97
2018-04-17T17:58:54.378Z,104307.44
2018-04-17T18:00:34.510Z,104389.86
2018-04-17T18:02:13.946Z,104426.52
2018-04-17T18:03:56.004Z,104473.20
2018-04-17T18:05:36.247Z,104495.39
2018-04-17T18:07:18.539Z,104515.34
2018-04-17T18:08:59.019Z,104508.56
2018-04-17T18:10:39.789Z,104497.66
2018-04-17T18:12:22.278Z,104489.50
2018-04-17T18:14:01.741Z,104394.78
2018-04-17T18:15:44.206Z,104252.17
2018-04-17T18:17:27.799Z,104241.78
2018-04-17T18:19:08.858Z,104284.77
2018-04-17T18:20:51.384Z,104297.91
2018-04-17T18:22:30.646Z,104302.90
2018-04-17T18:24:13.905Z,104301.03
2018-04-17T18:25:55.775Z,104336.81
2018-04-17T18:27:40.827Z,104351.73
2018-04-17T18:29:21.233Z,104335.00
2018-04-17T18:31:02.334Z,104302.84
2018-04-17T18:32:42.972Z,104355.36
2018-04-17T18:34:25.350Z,104352.64
2018-04-17T18:36:05.693Z,104281.11
2018-04-17T18:37:45.830Z,104248.06
2018-04-17T18:39:26.904Z,104209.13
2018-04-17T18:41:06.879Z,104202.36
2018-04-17T18:42:50.069Z,104199.65
2018-04-17T18:44:31.884Z,104156.19
2018-04-17T18:46:15.299Z,104148.98
2018-04-17T18:47:58.063Z,104117.73
2018-04-17T18:49:38.796Z,104094.67
2018-04-17T18:51:19.125Z,104047.15
2018-04-17T18:52:57.790Z,104020.03
2018-04-17T18:54:44.707Z,104021.84
2018-04-17T18:56:30.278Z,103991.14
2018-04-17T18:58:13.511Z,103946.83
2018-04-17T18:59:54.155Z,103877.28
2018-04-17T19:01:37.478Z,103819.02
2018-04-17T19:03:17.090Z,103797.78